createdAt,value
2022-12-14T00:01:25.669Z,3.25
2022-12-14T00:03:53.446Z,3.47
2022-12-14T00:06:22.807Z,3.28
2022-12-14T00:08:52.402Z,3.30
2022-12-14T00:11:22.688Z,3.47
2022-12-14T00:13:57.934Z,3.45
2022-12-14T00:16:27.985Z,2.88
2022-12-14T00:18:56.923Z,3.33
2022-12-14T00:21:23.872Z,2.72
2022-12-14T00:23:51.832Z,2.95
2022-12-14T00:26:30.960Z,3.40
2022-12-14T00:28:58.612Z,3.17
2022-12-14T00:31:25.889Z,3.30
2022-12-14T00:33:53.294Z,3.10
2022-12-14T00:36:20.507Z,2.90
2022-12-14T00:38:47.099Z,3.20
2022-12-14T00:41:13.737Z,3.08
2022-12-14T00:43:40.356Z,3.30
2022-12-14T00:46:07.225Z,3.05
2022-12-14T00:48:34.312Z,3.13
2022-12-14T00:51:00.960Z,3.40
2022-12-14T00:53:27.672Z,3.05
2022-12-14T00:55:54.621Z,3.22
2022-12-14T00:58:23.885Z,2.90
2022-12-14T01:01:02.334Z,2.63
2022-12-14T01:03:29.369Z,3.00
2022-12-14T01:05:56.382Z,3.17
2022-12-14T01:08:23.744Z,2.60
2022-12-14T01:10:50.941Z,2.97
2022-12-14T01:13:18.579Z,3.00
2022-12-14T01:15:45.199Z,3.08
2022-12-14T01:18:11.848Z,3.20
2022-12-14T01:20:38.416Z,3.22
2022-12-14T01:23:05.001Z,3.28
2022-12-14T01:25:31.611Z,2.95
2022-12-14T01:27:58.679Z,3.10
2022-12-14T01:30:25.235Z,3.30
2022-12-14T01:32:51.864Z,3.25
2022-12-14T01:35:18.429Z,3.00
2022-12-14T01:37:45.014Z,3.10
2022-12-14T01:40:15.690Z,2.58
2022-12-14T01:42:42.267Z,2.80
2022-12-14T01:45:18.766Z,3.03
2022-12-14T01:47:50.991Z,2.63
2022-12-14T01:50:29.296Z,2.85
2022-12-14T01:53:07.754Z,3.42
2022-12-14T01:55:38.498Z,2.92
2022-12-14T01:58:05.013Z,2.90
2022-12-14T02:00:31.650Z,2.90
2022-12-14T02:03:09.760Z,3.30
2022-12-14T02:05:39.941Z,3.20
2022-12-14T02:08:07.766Z,2.85
2022-12-14T02:10:34.503Z,2.78
2022-12-14T02:13:04.497Z,3.15
2022-12-14T02:15:32.371Z,2.83
2022-12-14T02:17:59.669Z,3.38
2022-12-14T02:20:34.228Z,2.67
2022-12-14T02:23:24.035Z,3.03
2022-12-14T02:26:37.596Z,2.95
2022-12-14T02:29:15.906Z,2.67
2022-12-14T02:31:46.782Z,2.88
2022-12-14T02:34:37.929Z,2.72
2022-12-14T02:37:22.469Z,3.00
2022-12-14T02:40:06.976Z,2.97
2022-12-14T02:42:48.539Z,3.10
2022-12-14T02:45:37.180Z,3.20
2022-12-14T02:48:09.671Z,2.80
2022-12-14T02:50:54.943Z,3.00
2022-12-14T02:53:31.392Z,3.20
2022-12-14T02:56:04.064Z,2.70
2022-12-14T02:58:39.002Z,3.00
2022-12-14T03:01:09.859Z,2.87
2022-12-14T03:03:36.548Z,2.97
2022-12-14T03:06:14.755Z,2.95
2022-12-14T03:08:44.499Z,2.72
2022-12-14T03:11:16.911Z,2.70
2022-12-14T03:13:50.714Z,3.00
2022-12-14T03:16:19.809Z,2.80
2022-12-14T03:18:56.572Z,3.10
2022-12-14T03:21:35.271Z,2.78
2022-12-14T03:24:08.062Z,2.83
2022-12-14T03:26:47.379Z,3.20
2022-12-14T03:29:28.465Z,3.40
2022-12-14T03:31:58.862Z,2.85
2022-12-14T03:34:32.911Z,3.22
2022-12-14T03:37:09.681Z,2.92
2022-12-14T03:39:38.529Z,3.10
2022-12-14T03:42:17.705Z,2.53
2022-12-14T03:44:49.560Z,2.60
2022-12-14T03:47:36.428Z,3.10
2022-12-14T03:50:05.774Z,2.95
2022-12-14T03:52:37.731Z,2.83
2022-12-14T03:55:17.310Z,2.92
2022-12-14T03:58:03.830Z,3.10
2022-12-14T04:00:35.763Z,2.78
2022-12-14T04:03:30.164Z,3.10
2022-12-14T04:06:05.551Z,3.28
2022-12-14T04:08:45.186Z,2.70
2022-12-14T04:11:35.547Z,2.95
2022-12-14T04:14:50.061Z,2.60
2022-12-14T04:17:41.408Z,2.90
2022-12-14T04:20:18.128Z,2.60
2022-12-14T04:22:53.088Z,2.85
2022-12-14T04:25:44.163Z,3.10
2022-12-14T04:28:35.932Z,2.97
2022-12-14T04:31:11.202Z,3.00
2022-12-14T04:33:47.068Z,3.03
2022-12-14T04:38:47.502Z,2.97
2022-12-14T04:41:20.024Z,2.80
2022-12-14T04:43:49.020Z,3.08
2022-12-14T04:46:20.538Z,2.78
2022-12-14T04:48:56.933Z,3.17
2022-12-14T04:51:46.070Z,3.13
2022-12-14T04:54:26.458Z,2.78
2022-12-14T04:57:21.595Z,3.13
2022-12-14T04:59:50.519Z,2.47
2022-12-14T05:02:39.170Z,2.88
2022-12-14T05:05:08.637Z,3.05
2022-12-14T05:07:44.058Z,3.15
2022-12-14T05:10:17.850Z,3.03
2022-12-14T05:12:56.397Z,2.20
2022-12-14T05:15:31.371Z,2.80
2022-12-14T05:18:03.257Z,3.10
2022-12-14T05:20:30.126Z,2.92
2022-12-14T05:22:56.826Z,2.70
2022-12-14T05:25:23.472Z,3.03
2022-12-14T05:27:50.689Z,3.35
2022-12-14T05:30:18.072Z,2.90
2022-12-14T05:32:44.839Z,2.85
2022-12-14T05:35:15.133Z,3.05
2022-12-14T05:37:42.797Z,2.70
2022-12-14T05:40:10.325Z,2.80
2022-12-14T05:42:41.047Z,2.97
2022-12-14T05:45:14.808Z,2.85
2022-12-14T05:47:42.093Z,2.78
2022-12-14T05:50:09.153Z,2.72
2022-12-14T05:52:35.781Z,2.90
2022-12-14T05:55:04.518Z,2.90
2022-12-14T05:57:32.057Z,2.85
2022-12-14T05:59:58.675Z,3.03
2022-12-14T06:02:25.375Z,2.95
2022-12-14T06:04:52.162Z,2.90
2022-12-14T06:07:21.810Z,2.70
2022-12-14T06:09:52.553Z,2.25
2022-12-14T06:12:19.163Z,3.22
2022-12-14T06:14:46.211Z,2.90
2022-12-14T06:17:12.993Z,2.60
2022-12-14T06:19:39.585Z,2.50
2022-12-14T06:22:06.126Z,2.70
2022-12-14T06:24:32.845Z,2.58
2022-12-14T06:26:59.482Z,2.95
2022-12-14T06:29:26.259Z,3.20
2022-12-14T06:31:53.475Z,2.97
2022-12-14T06:34:24.985Z,3.05
2022-12-14T06:36:55.102Z,2.58
2022-12-14T06:39:21.811Z,3.38
2022-12-14T06:41:51.987Z,3.75
2022-12-14T06:44:19.060Z,3.30
2022-12-14T06:46:46.179Z,3.15
2022-12-14T06:49:16.069Z,3.75
2022-12-14T06:51:43.380Z,3.65
2022-12-14T06:54:12.029Z,4.10
2022-12-14T06:56:39.394Z,3.50
2022-12-14T06:59:06.752Z,3.80
2022-12-14T07:01:33.494Z,3.83
2022-12-14T07:04:00.231Z,4.32
2022-12-14T07:06:28.601Z,4.03
2022-12-14T07:08:58.893Z,4.43
2022-12-14T07:11:26.845Z,4.20
2022-12-14T07:13:54.589Z,3.95
2022-12-14T07:16:24.956Z,4.30
2022-12-14T07:18:54.013Z,3.95
2022-12-14T07:21:21.637Z,3.35
2022-12-14T07:23:49.256Z,3.80
2022-12-14T07:26:18.931Z,3.63
2022-12-14T07:28:46.924Z,4.22
2022-12-14T07:31:18.277Z,3.42
2022-12-14T07:33:46.313Z,4.20
2022-12-14T07:36:16.764Z,3.05
2022-12-14T07:38:44.874Z,4.25
2022-12-14T07:41:22.011Z,3.72
2022-12-14T07:43:50.769Z,3.90
2022-12-14T07:46:20.245Z,3.40
2022-12-14T07:48:49.065Z,3.70
2022-12-14T07:51:17.869Z,3.65
2022-12-14T07:53:44.558Z,3.88
2022-12-14T07:56:17.596Z,3.80
2022-12-14T07:58:44.634Z,3.40
2022-12-14T08:01:32.058Z,3.42
2022-12-14T08:04:03.823Z,3.70
2022-12-14T08:06:31.029Z,3.53
2022-12-14T08:08:58.335Z,3.67
2022-12-14T08:11:26.055Z,3.78
2022-12-14T08:14:17.170Z,3.08
2022-12-14T08:16:45.208Z,3.50
2022-12-14T08:19:12.732Z,3.63
2022-12-14T08:21:40.087Z,3.00
2022-12-14T08:24:07.080Z,3.28
2022-12-14T08:26:36.013Z,3.65
2022-12-14T08:29:03.686Z,3.00
2022-12-14T08:31:31.448Z,3.22
2022-12-14T08:33:59.696Z,2.97
2022-12-14T08:36:29.586Z,3.10
2022-12-14T08:39:01.569Z,3.40
2022-12-14T08:41:29.112Z,3.10
2022-12-14T08:43:58.194Z,3.50
2022-12-14T08:46:26.679Z,3.33
2022-12-14T08:48:55.051Z,3.08
2022-12-14T08:51:23.295Z,3.08
2022-12-14T08:53:50.428Z,3.00
2022-12-14T08:56:19.866Z,3.38
2022-12-14T08:58:46.574Z,3.03
2022-12-14T09:01:18.173Z,2.95
2022-12-14T09:03:46.462Z,3.08
2022-12-14T09:06:16.972Z,2.83
2022-12-14T09:08:44.011Z,2.83
2022-12-14T09:11:13.044Z,2.92
2022-12-14T09:13:39.675Z,2.95
2022-12-14T09:16:10.379Z,3.35
2022-12-14T09:18:37.025Z,3.10
2022-12-14T09:21:04.570Z,3.40
2022-12-14T09:23:33.752Z,2.95
2022-12-14T09:26:02.178Z,3.17
2022-12-14T09:28:30.040Z,3.05
2022-12-14T09:31:01.398Z,3.60
2022-12-14T09:33:29.688Z,3.10
2022-12-14T09:36:20.353Z,2.90
2022-12-14T09:38:51.718Z,2.80
2022-12-14T09:41:34.349Z,2.92
2022-12-14T09:44:18.131Z,3.08
2022-12-14T09:46:54.786Z,3.17
2022-12-14T09:51:56.769Z,2.53
2022-12-14T09:54:27.638Z,2.80
2022-12-14T09:57:03.419Z,3.20
2022-12-14T09:59:31.905Z,2.97
2022-12-14T10:02:33.763Z,2.78
2022-12-14T10:05:24.869Z,3.22
2022-12-14T10:08:10.428Z,2.97
2022-12-14T10:10:46.502Z,2.67
2022-12-14T10:13:36.077Z,3.10
2022-12-14T10:16:17.875Z,3.05
2022-12-14T10:19:04.009Z,3.15
2022-12-14T10:21:55.281Z,2.97
2022-12-14T10:24:30.671Z,3.05
2022-12-14T10:26:57.647Z,2.50
2022-12-14T10:29:37.317Z,2.70
2022-12-14T10:32:15.830Z,2.70
2022-12-14T10:34:43.759Z,2.97
2022-12-14T10:37:32.055Z,3.00
2022-12-14T10:40:13.793Z,2.70
2022-12-14T10:43:12.110Z,2.63
2022-12-14T10:46:00.613Z,2.72
2022-12-14T10:48:33.419Z,2.88
2022-12-14T10:51:11.686Z,2.50
2022-12-14T10:53:48.945Z,2.72
2022-12-14T10:56:38.377Z,2.60
2022-12-14T10:59:47.988Z,2.83
2022-12-14T11:02:29.749Z,2.70
2022-12-14T11:05:00.525Z,2.72
2022-12-14T11:07:49.813Z,2.63
2022-12-14T11:10:19.045Z,2.75
2022-12-14T11:13:02.450Z,3.00
2022-12-14T11:15:53.004Z,2.55
2022-12-14T11:18:22.526Z,2.75
2022-12-14T11:20:54.826Z,3.00
2022-12-14T11:23:26.164Z,2.95
2022-12-14T11:25:58.937Z,2.67
2022-12-14T11:28:38.342Z,2.90
2022-12-14T11:31:08.708Z,2.97
2022-12-14T11:33:44.412Z,2.75
2022-12-14T11:36:27.710Z,2.83
2022-12-14T11:38:59.213Z,2.80
2022-12-14T11:41:30.604Z,2.83
2022-12-14T11:44:20.242Z,2.67
2022-12-14T11:46:59.488Z,2.55
2022-12-14T11:49:26.007Z,2.20
2022-12-14T11:51:59.116Z,2.63
2022-12-14T11:54:26.376Z,2.45
2022-12-14T11:57:01.118Z,2.50
2022-12-14T11:59:36.618Z,2.63
2022-12-14T12:02:28.924Z,2.45
2022-12-14T12:05:21.756Z,2.83
2022-12-14T12:07:53.126Z,2.53
2022-12-14T12:10:25.742Z,1.83
2022-12-14T12:12:56.958Z,2.38
2022-12-14T12:15:32.801Z,2.50
2022-12-14T12:20:34.467Z,2.47
2022-12-14T12:23:17.835Z,2.08
2022-12-14T12:25:48.250Z,2.28
2022-12-14T12:28:21.879Z,2.50
2022-12-14T12:30:53.183Z,2.30
2022-12-14T12:33:27.115Z,2.25
2022-12-14T12:36:03.685Z,2.42
2022-12-14T12:38:57.045Z,2.42
2022-12-14T12:41:52.096Z,2.03
2022-12-14T12:44:34.272Z,2.17
2022-12-14T12:47:26.752Z,2.58
2022-12-14T12:50:09.758Z,2.20
2022-12-14T12:53:00.930Z,2.50
2022-12-14T12:55:34.416Z,2.13
2022-12-14T12:58:03.456Z,2.03
2022-12-14T13:00:31.803Z,1.60
2022-12-14T13:03:05.601Z,2.00
2022-12-14T13:05:47.181Z,2.13
2022-12-14T13:08:23.489Z,2.20
2022-12-14T13:13:44.201Z,2.00
2022-12-14T13:16:26.907Z,2.22
2022-12-14T13:19:18.967Z,2.00
2022-12-14T13:21:50.434Z,2.17
2022-12-14T13:24:20.014Z,1.90
2022-12-14T13:27:01.762Z,2.10
2022-12-14T13:29:52.652Z,2.05
2022-12-14T13:32:24.822Z,1.98
2022-12-14T13:35:20.369Z,2.05
2022-12-14T13:38:38.709Z,1.98
2022-12-14T13:41:14.949Z,2.33
2022-12-14T13:43:51.200Z,2.30
2022-12-14T13:46:24.418Z,2.38
2022-12-14T13:48:54.008Z,2.28
2022-12-14T13:51:40.893Z,2.28
2022-12-14T13:54:21.307Z,1.92
2022-12-14T13:56:47.969Z,2.17
2022-12-14T13:59:37.474Z,2.47
2022-12-14T14:02:06.118Z,2.30
2022-12-14T14:04:35.687Z,2.30
2022-12-14T14:07:24.229Z,1.90
2022-12-14T14:10:05.507Z,2.03
2022-12-14T14:12:40.721Z,1.90
2022-12-14T14:15:28.199Z,1.88
2022-12-14T14:18:01.624Z,1.77
2022-12-14T14:20:34.105Z,1.90
2022-12-14T14:23:16.007Z,1.95
2022-12-14T14:26:19.707Z,2.00
2022-12-14T14:28:51.008Z,1.80
2022-12-14T14:31:17.676Z,2.15
2022-12-14T14:33:49.312Z,2.00
2022-12-14T14:36:34.892Z,1.80
2022-12-14T14:39:38.299Z,1.77
2022-12-14T14:41:55.831Z,1.85
2022-12-14T14:44:35.504Z,2.08
2022-12-14T14:47:07.510Z,2.03
2022-12-14T14:49:41.068Z,2.30
2022-12-14T14:52:47.448Z,1.85
2022-12-14T14:58:46.857Z,1.63
2022-12-14T15:01:26.761Z,1.92
2022-12-14T15:04:23.758Z,1.40
2022-12-14T15:06:56.756Z,1.90
2022-12-14T15:09:31.662Z,2.25
2022-12-14T15:12:04.104Z,1.50
2022-12-14T15:14:36.418Z,1.55
2022-12-14T15:17:21.787Z,1.98
2022-12-14T15:19:58.175Z,1.63
2022-12-14T15:22:43.079Z,1.90
2022-12-14T15:25:17.442Z,1.70
2022-12-14T15:27:44.046Z,1.50
2022-12-14T15:30:10.548Z,1.90
2022-12-14T15:32:47.509Z,1.83
2022-12-14T15:35:18.358Z,1.83
2022-12-14T15:37:48.980Z,1.92
2022-12-14T15:40:22.601Z,1.75
2022-12-14T15:43:01.319Z,1.90
2022-12-14T15:45:29.453Z,1.67
2022-12-14T15:47:56.614Z,2.05
2022-12-14T15:50:28.012Z,1.70
2022-12-14T15:52:58.641Z,1.77
2022-12-14T15:55:33.423Z,1.95
2022-12-14T15:58:07.261Z,1.85
2022-12-14T16:00:35.645Z,1.77
2022-12-14T16:03:15.772Z,1.98
2022-12-14T16:05:43.585Z,1.90
2022-12-14T16:08:11.662Z,2.10
2022-12-14T16:10:38.742Z,2.17
2022-12-14T16:13:15.590Z,2.25
2022-12-14T16:15:43.144Z,1.70
2022-12-14T16:18:16.205Z,2.00
2022-12-14T16:20:45.400Z,1.70
2022-12-14T16:23:14.893Z,1.88
2022-12-14T16:26:13.794Z,2.40
2022-12-14T16:28:40.958Z,1.90
2022-12-14T16:31:18.615Z,1.88
2022-12-14T16:34:05.206Z,1.90
2022-12-14T16:36:34.365Z,2.13
2022-12-14T16:39:16.579Z,2.20
2022-12-14T16:41:52.105Z,1.83
2022-12-14T16:44:23.199Z,1.88
2022-12-14T16:47:12.518Z,1.67
2022-12-14T16:49:41.169Z,1.85
2022-12-14T16:52:10.602Z,2.17
2022-12-14T16:54:38.745Z,2.05
2022-12-14T16:57:26.004Z,2.40
2022-12-14T16:59:58.194Z,2.17
2022-12-14T17:02:38.147Z,2.10
2022-12-14T17:05:12.781Z,2.25
2022-12-14T17:07:39.984Z,2.20
2022-12-14T17:10:24.285Z,2.28
2022-12-14T17:12:53.589Z,2.30
2022-12-14T17:15:22.561Z,2.45
2022-12-14T17:17:54.782Z,2.90
2022-12-14T17:20:23.016Z,2.40
2022-12-14T17:22:50.034Z,2.80
2022-12-14T17:25:17.003Z,2.80
2022-12-14T17:27:43.561Z,2.42
2022-12-14T17:30:20.407Z,2.40
2022-12-14T17:32:48.184Z,3.00
2022-12-14T17:35:25.066Z,2.92
2022-12-14T17:37:52.116Z,3.08
2022-12-14T17:40:18.802Z,2.50
2022-12-14T17:42:51.661Z,2.50
2022-12-14T17:45:22.233Z,2.85
2022-12-14T17:47:49.076Z,2.65
2022-12-14T17:50:17.020Z,2.90
2022-12-14T17:52:43.805Z,3.30
2022-12-14T17:55:20.697Z,2.90
2022-12-14T17:57:48.216Z,2.88
2022-12-14T18:00:35.865Z,2.70
2022-12-14T18:03:03.958Z,2.33
2022-12-14T18:05:32.026Z,2.85
2022-12-14T18:07:58.872Z,2.60
2022-12-14T18:10:26.175Z,3.10
2022-12-14T18:12:53.120Z,2.75
2022-12-14T18:15:24.945Z,2.65
2022-12-14T18:17:51.753Z,2.95
2022-12-14T18:20:23.356Z,3.10
2022-12-14T18:22:51.642Z,2.60
2022-12-14T18:25:36.838Z,3.00
2022-12-14T18:28:06.169Z,3.00
2022-12-14T18:30:39.697Z,3.40
2022-12-14T18:33:17.200Z,3.00
2022-12-14T18:35:44.939Z,3.05
2022-12-14T18:38:12.059Z,2.85
2022-12-14T18:40:39.542Z,3.22
2022-12-14T18:43:06.324Z,2.97
2022-12-14T18:45:34.824Z,3.28
2022-12-14T18:48:01.841Z,3.90
2022-12-14T18:50:29.619Z,3.53
2022-12-14T18:52:56.777Z,3.83
2022-12-14T18:55:26.472Z,3.60
2022-12-14T18:57:55.594Z,3.65
2022-12-14T19:00:24.973Z,3.22
2022-12-14T19:02:52.147Z,2.97
2022-12-14T19:05:26.051Z,3.60
2022-12-14T19:07:53.578Z,3.60
2022-12-14T19:10:22.998Z,3.38
2022-12-14T19:12:50.366Z,3.58
2022-12-14T19:15:25.756Z,3.83
2022-12-14T19:17:53.350Z,3.53
2022-12-14T19:20:21.278Z,3.00
2022-12-14T19:22:48.877Z,3.17
2022-12-14T19:25:17.009Z,3.30
2022-12-14T19:28:20.388Z,3.15
2022-12-14T19:30:34.531Z,3.33
2022-12-14T19:33:01.188Z,3.72
2022-12-14T19:35:27.895Z,3.17
2022-12-14T19:37:54.478Z,3.53
2022-12-14T19:40:21.300Z,3.30
2022-12-14T19:42:47.911Z,3.13
2022-12-14T19:45:15.833Z,3.42
2022-12-14T19:47:44.105Z,3.20
2022-12-14T19:50:13.181Z,3.40
2022-12-14T19:52:40.426Z,3.50
2022-12-14T19:55:07.323Z,3.47
2022-12-14T19:57:34.436Z,3.15
2022-12-14T20:00:01.031Z,3.50
2022-12-14T20:02:27.862Z,3.10
2022-12-14T20:04:54.556Z,3.50
2022-12-14T20:07:21.190Z,3.70
2022-12-14T20:09:47.754Z,3.38
2022-12-14T20:12:14.364Z,3.55
2022-12-14T20:14:41.297Z,3.10
2022-12-14T20:17:09.399Z,3.70
2022-12-14T20:19:38.351Z,3.45
2022-12-14T20:22:05.954Z,3.40
2022-12-14T20:24:33.274Z,3.58
2022-12-14T20:26:59.873Z,3.67
2022-12-14T20:29:27.650Z,3.33
2022-12-14T20:31:57.381Z,3.35
2022-12-14T20:34:24.728Z,3.20
2022-12-14T20:36:51.407Z,3.70
2022-12-14T20:39:18.408Z,3.88
2022-12-14T20:41:45.481Z,3.03
2022-12-14T20:44:12.785Z,3.33
2022-12-14T20:46:42.885Z,3.42
2022-12-14T20:49:18.479Z,3.33
2022-12-14T20:51:46.474Z,3.28
2022-12-14T20:54:16.184Z,3.92
2022-12-14T20:56:43.003Z,2.90
2022-12-14T20:59:11.309Z,3.10
2022-12-14T21:01:39.395Z,3.38
2022-12-14T21:04:07.173Z,3.55
2022-12-14T21:06:37.866Z,3.20
2022-12-14T21:09:05.352Z,3.35
2022-12-14T21:11:56.315Z,3.50
2022-12-14T21:14:25.350Z,3.17
2022-12-14T21:16:55.435Z,3.22
2022-12-14T21:19:22.558Z,3.30
2022-12-14T21:21:53.561Z,3.25
2022-12-14T21:24:44.800Z,3.33
2022-12-14T21:27:10.043Z,3.53
2022-12-14T21:29:36.542Z,3.05
2022-12-14T21:32:04.365Z,3.15
2022-12-14T21:34:31.852Z,2.97
2022-12-14T21:36:59.263Z,3.05
2022-12-14T21:39:26.569Z,3.50
2022-12-14T21:42:12.806Z,3.30
2022-12-14T21:44:44.076Z,2.95
2022-12-14T21:47:14.183Z,3.25
2022-12-14T21:49:42.311Z,3.50
2022-12-14T21:52:12.305Z,3.55
2022-12-14T21:54:40.035Z,3.85
2022-12-14T21:57:25.277Z,3.30
2022-12-14T21:59:51.846Z,3.80
2022-12-14T22:02:21.798Z,3.53
2022-12-14T22:04:49.489Z,3.55
2022-12-14T22:07:20.630Z,3.70
2022-12-14T22:09:49.521Z,3.78
2022-12-14T22:12:19.085Z,3.78
2022-12-14T22:14:45.885Z,3.50
2022-12-14T22:17:14.591Z,3.75
2022-12-14T22:19:41.309Z,3.90
2022-12-14T22:22:15.062Z,3.88
2022-12-14T22:24:41.780Z,4.10
2022-12-14T22:27:10.265Z,3.97
2022-12-14T22:29:37.426Z,3.67
2022-12-14T22:32:04.390Z,3.60
2022-12-14T22:34:32.261Z,4.05
2022-12-14T22:36:59.159Z,3.47
2022-12-14T22:39:26.105Z,3.58
2022-12-14T22:41:52.675Z,3.70
2022-12-14T22:44:19.479Z,4.10
2022-12-14T22:46:48.370Z,3.97
2022-12-14T22:49:19.520Z,3.83
2022-12-14T22:51:46.950Z,4.03
2022-12-14T22:54:21.707Z,4.03
2022-12-14T22:57:02.399Z,3.83
2022-12-14T22:59:40.221Z,4.63
2022-12-14T23:02:07.031Z,3.92
2022-12-14T23:04:33.882Z,4.28
2022-12-14T23:07:00.982Z,3.90
2022-12-14T23:09:46.161Z,4.53
2022-12-14T23:12:31.794Z,4.13
2022-12-14T23:15:17.038Z,4.07
2022-12-14T23:18:02.148Z,4.07
2022-12-14T23:20:47.503Z,4.25
2022-12-14T23:23:33.038Z,4.10
2022-12-14T23:26:22.634Z,4.22
2022-12-14T23:29:07.735Z,4.10
2022-12-14T23:31:52.940Z,4.05
2022-12-14T23:34:38.090Z,3.83
2022-12-14T23:37:23.332Z,3.80
2022-12-14T23:40:08.404Z,3.80
2022-12-14T23:42:53.524Z,3.95
2022-12-14T23:45:38.681Z,3.97
2022-12-14T23:48:24.174Z,3.92
2022-12-14T23:51:09.637Z,4.30
2022-12-14T23:53:54.900Z,3.80
2022-12-14T23:56:40.180Z,3.60
2022-12-14T23:59:31.517Z,4.05
